Time;durP1;ratioP1;P1;durP2;ratioP2;P2;SDS_P1;SDS_P2;PMS_P1;PMS_P2;Temp;Humidity;BMP_temperature;BMP_pressure;BME280_temperature;BME280_humidity;BME280_pressure;Samples;Min_cycle;Max_cycle;Signal;HPM_P1;HPM_P2
2022/08/29 05:59:53;;;;;;;3.13;1.63;;;;;;;;;;10497265;28;20375;-80
2022/08/29 06:04:54;;;;;;;2.60;1.60;;;;;;;;;;10494853;28;20028;-80
2022/08/29 06:09:55;;;;;;;3.17;1.75;;;;;;;;;;10495435;28;20083;-80
2022/08/29 06:14:56;;;;;;;3.83;1.73;;;;;;;;;;10493850;28;20485;-79
2022/08/29 06:19:57;;;;;;;3.03;1.70;;;;;;;;;;10494035;28;20094;-78
2022/08/29 06:24:58;;;;;;;3.80;2.00;;;;;;;;;;10493875;28;20566;-79
2022/08/29 06:30:22;;;;;;;7.55;3.72;;;;;;;;;;10494153;28;20210;-79
2022/08/29 06:35:23;;;;;;;3.80;1.95;;;;;;;;;;10495785;28;20033;-79
2022/08/29 06:40:24;;;;;;;6.20;2.60;;;;;;;;;;10495012;28;20097;-79
2022/08/29 06:45:25;;;;;;;4.10;2.25;;;;;;;;;;10493987;28;20470;-79
2022/08/29 06:50:27;;;;;;;3.05;2.05;;;;;;;;;;10494883;28;20017;-79
2022/08/29 06:55:28;;;;;;;3.55;1.90;;;;;;;;;;10492077;28;20029;-79
2022/08/29 07:00:29;;;;;;;2.03;1.35;;;;;;;;;;10492310;28;20037;-79
2022/08/29 07:05:30;;;;;;;2.30;1.70;;;;;;;;;;10493304;28;20036;-80
2022/08/29 07:10:36;;;;;;;2.72;1.73;;;;;;;;;;10478197;28;20023;-82
2022/08/29 07:15:39;;;;;;;7.03;2.10;;;;;;;;;;10485055;28;20021;-82
2022/08/29 07:20:40;;;;;;;4.40;2.50;;;;;;;;;;10490704;28;20040;-83
2022/08/29 07:25:41;;;;;;;6.22;2.88;;;;;;;;;;10481084;28;20112;-83
2022/08/29 07:30:42;;;;;;;6.15;2.53;;;;;;;;;;10479283;28;20383;-83
2022/08/29 07:35:43;;;;;;;6.18;2.53;;;;;;;;;;10476536;28;20068;-83
2022/08/29 07:40:45;;;;;;;7.38;2.63;;;;;;;;;;10476711;28;20083;-83
2022/08/29 07:45:46;;;;;;;6.28;2.80;;;;;;;;;;10473924;28;20033;-83
2022/08/29 07:50:47;;;;;;;4.72;2.70;;;;;;;;;;10472407;28;20140;-83
2022/08/29 07:55:48;;;;;;;7.82;3.00;;;;;;;;;;10475933;28;20040;-83
2022/08/29 08:00:49;;;;;;;7.20;2.90;;;;;;;;;;10476253;28;20028;-81
2022/08/29 08:05:50;;;;;;;6.28;2.80;;;;;;;;;;10476042;28;20386;-82
2022/08/29 08:10:51;;;;;;;5.82;2.70;;;;;;;;;;10477693;28;20021;-82
2022/08/29 08:15:54;;;;;;;6.43;2.80;;;;;;;;;;10477417;28;20502;-81
2022/08/29 08:20:55;;;;;;;6.85;2.75;;;;;;;;;;10477686;28;20048;-82
2022/08/29 08:25:56;;;;;;;7.63;2.70;;;;;;;;;;10478806;28;20029;-82
2022/08/29 08:30:58;;;;;;;5.43;2.40;;;;;;;;;;10477167;28;20475;-82
2022/08/29 08:35:59;;;;;;;8.25;4.47;;;;;;;;;;10476672;28;20064;-81
2022/08/29 08:41:00;;;;;;;6.93;4.45;;;;;;;;;;10470202;28;20033;-81
2022/08/29 08:46:01;;;;;;;7.15;3.58;;;;;;;;;;10473638;28;20078;-81
2022/08/29 08:51:09;;;;;;;4.57;3.42;;;;;;;;;;10472569;28;20088;-81
2022/08/29 08:56:13;;;;;;;5.88;3.25;;;;;;;;;;10471890;28;20037;-80
2022/08/29 09:01:14;;;;;;;5.38;2.90;;;;;;;;;;10470180;28;20103;-81
2022/08/29 09:06:25;;;;;;;6.15;3.05;;;;;;;;;;10470047;28;20029;-81
2022/08/29 09:11:50;;;;;;;5.22;3.30;;;;;;;;;;10477637;28;20024;-80
2022/08/29 09:16:54;;;;;;;5.45;2.90;;;;;;;;;;10470915;28;20041;-80
2022/08/29 09:21:59;;;;;;;7.18;3.10;;;;;;;;;;10471058;28;20057;-81
2022/08/29 09:27:00;;;;;;;6.55;3.03;;;;;;;;;;10473028;28;20383;-81
2022/08/29 09:32:06;;;;;;;6.50;2.72;;;;;;;;;;10473200;28;20151;-81
2022/08/29 10:05:35;;;;;;;;;;;;;;;;;;10358413;28;20058;-86
2022/08/29 10:22:05;;;;;;;6.22;3.63;;;;;;;;;;10346173;28;20026;-86
2022/08/29 10:33:08;;;;;;;8.80;3.70;;;;;;;;;;10350970;28;20022;-88
2022/08/29 10:38:35;;;;;;;6.53;3.40;;;;;;;;;;10361918;28;20072;-84
2022/08/29 10:49:37;;;;;;;6.80;3.33;;;;;;;;;;10374362;28;20031;-84
2022/08/29 12:57:44;;;;;;;5.68;2.75;;;;;;;;;;10394839;28;20094;-84
2022/08/29 13:08:51;;;;;;;6.70;3.25;;;;;;;;;;10305439;28;20042;-83
2022/08/29 13:14:11;;;;;;;4.93;2.85;;;;;;;;;;10311039;28;20110;-84
2022/08/29 13:31:17;;;;;;;5.00;3.17;;;;;;;;;;10339581;28;20131;-84
2022/08/29 13:42:47;;;;;;;5.60;3.22;;;;;;;;;;10085462;29;20045;-85
2022/08/29 13:53:29;;;;;;;6.32;3.22;;;;;;;;;;10103739;29;20029;-85
2022/08/29 13:58:55;;;;;;;5.53;3.58;;;;;;;;;;10307416;28;20045;-83
2022/08/29 14:03:56;;;;;;;6.55;2.90;;;;;;;;;;10461200;28;20047;-83
2022/08/29 14:08:58;;;;;;;4.65;2.60;;;;;;;;;;10458420;28;20044;-84
2022/08/29 14:13:59;;;;;;;5.82;3.10;;;;;;;;;;10458392;28;20024;-83
2022/08/29 14:19:02;;;;;;;7.32;2.90;;;;;;;;;;10456706;28;20711;-85
2022/08/29 14:24:03;;;;;;;10.40;2.65;;;;;;;;;;10462180;28;20033;-84
2022/08/29 14:29:04;;;;;;;7.10;2.83;;;;;;;;;;10464534;28;20147;-84
2022/08/29 14:34:06;;;;;;;5.72;2.72;;;;;;;;;;10464108;28;20059;-84
2022/08/29 14:39:09;;;;;;;5.85;2.55;;;;;;;;;;10461029;28;20024;-84
2022/08/29 14:44:10;;;;;;;6.05;2.60;;;;;;;;;;10461698;28;20032;-84
2022/08/29 14:49:13;;;;;;;7.05;2.90;;;;;;;;;;10462502;28;20171;-82
2022/08/29 14:54:19;;;;;;;4.80;2.38;;;;;;;;;;10479524;28;20029;-84
2022/08/29 14:59:23;;;;;;;5.28;3.10;;;;;;;;;;10461533;28;20033;-83
2022/08/29 15:04:25;;;;;;;4.70;2.95;;;;;;;;;;10459873;28;20025;-83
2022/08/29 15:09:26;;;;;;;5.60;2.80;;;;;;;;;;10476103;28;20151;-84
2022/08/29 15:14:27;;;;;;;5.00;2.50;;;;;;;;;;10455795;28;20021;-83
2022/08/29 15:19:38;;;;;;;6.55;2.92;;;;;;;;;;10457025;28;20045;-86
2022/08/29 15:24:40;;;;;;;5.80;2.90;;;;;;;;;;10464475;28;20028;-84
2022/08/29 15:29:56;;;;;;;4.38;2.60;;;;;;;;;;10459009;28;20028;-85
2022/08/29 15:34:57;;;;;;;5.47;2.38;;;;;;;;;;10454957;28;20025;-85
2022/08/29 15:39:58;;;;;;;5.10;2.42;;;;;;;;;;10449350;28;20375;-85
2022/08/29 15:45:18;;;;;;;7.00;2.90;;;;;;;;;;10433282;28;20029;-85
2022/08/29 15:50:38;;;;;;;4.15;2.40;;;;;;;;;;10453706;28;20115;-85
